Time;durP1;ratioP1;P1;durP2;ratioP2;P2;SDS_P1;SDS_P2;PMS_P1;PMS_P2;Temp;Humidity;BMP_temperature;BMP_pressure;BME280_temperature;BME280_humidity;BME280_pressure;Samples;Min_cycle;Max_cycle;Signal;HPM_P1;HPM_P2
2021/03/20 00:01:26;;;;;;;6.07;5.47;;;2.70;77.10;;;;;;4972218;28;20210;-88
2021/03/20 00:03:55;;;;;;;7.23;6.33;;;2.70;77.80;;;;;;4988121;28;20170;-89
2021/03/20 00:06:24;;;;;;;6.73;6.03;;;2.70;78.10;;;;;;4971315;28;20199;-88
2021/03/20 00:08:54;;;;;;;7.07;6.23;;;2.80;77.80;;;;;;4971561;28;20184;-89
2021/03/20 00:11:21;;;;;;;7.10;6.40;;;2.80;77.50;;;;;;5003585;28;20207;-88
2021/03/20 00:13:49;;;;;;;19.63;13.53;;;2.80;77.20;;;;;;4988037;28;20190;-88
2021/03/20 00:16:19;;;;;;;7.90;6.57;;;2.80;77.00;;;;;;5003542;28;20563;-89
2021/03/20 00:18:46;;;;;;;7.03;6.33;;;2.80;77.30;;;;;;4988950;28;20203;-89
2021/03/20 00:21:13;;;;;;;8.53;7.63;;;2.90;77.30;;;;;;4988586;28;20195;-89
2021/03/20 00:23:39;;;;;;;7.53;6.20;;;2.90;77.20;;;;;;4987611;28;20184;-89
2021/03/20 00:26:06;;;;;;;7.17;6.47;;;2.80;76.10;;;;;;4987981;28;20218;-88
2021/03/20 00:28:33;;;;;;;7.30;6.53;;;2.80;77.00;;;;;;5003847;28;20187;-87
2021/03/20 00:31:02;;;;;;;7.80;7.10;;;2.80;77.30;;;;;;4985807;28;20579;-88
2021/03/20 00:33:29;;;;;;;10.63;7.47;;;2.90;77.00;;;;;;4987526;28;20198;-88
2021/03/20 00:35:55;;;;;;;7.67;6.70;;;2.90;77.10;;;;;;4988669;28;20183;-88
2021/03/20 00:38:22;;;;;;;8.53;7.23;;;2.90;77.30;;;;;;4987122;28;20211;-88
2021/03/20 00:40:48;;;;;;;8.50;6.70;;;3.00;77.20;;;;;;4971025;28;20692;-88
2021/03/20 00:43:15;;;;;;;7.90;7.10;;;2.90;75.20;;;;;;4988168;28;20187;-89
2021/03/20 00:45:41;;;;;;;8.70;6.83;;;2.70;76.10;;;;;;4987045;28;20214;-88
2021/03/20 00:48:14;;;;;;;9.40;7.03;;;2.60;76.70;;;;;;4988300;28;20199;-88
2021/03/20 00:50:40;;;;;;;7.60;6.80;;;2.60;77.30;;;;;;4971831;28;20206;-88
2021/03/20 00:53:07;;;;;;;8.00;7.17;;;2.60;77.50;;;;;;4988599;28;20179;-87
2021/03/20 00:55:33;;;;;;;7.63;6.27;;;2.60;76.90;;;;;;4955140;28;20642;-88
2021/03/20 00:58:00;;;;;;;7.93;7.10;;;2.60;77.40;;;;;;5000339;28;20195;-88
2021/03/20 01:00:28;;;;;;;7.87;6.90;;;2.60;77.00;;;;;;4954432;28;20211;-89
2021/03/20 01:02:56;;;;;;;8.57;7.77;;;2.60;76.90;;;;;;4971540;28;20215;-88
2021/03/20 01:05:22;;;;;;;8.00;7.20;;;2.70;77.50;;;;;;4970515;28;20294;-88
2021/03/20 01:07:49;;;;;;;8.47;7.07;;;2.70;77.10;;;;;;4953513;28;20198;-89
2021/03/20 01:10:21;;;;;;;8.37;6.83;;;2.70;77.40;;;;;;4979953;28;20203;-88
2021/03/20 01:12:48;;;;;;;6.93;6.10;;;2.70;77.10;;;;;;4987261;28;20179;-88
2021/03/20 01:15:17;;;;;;;6.63;6.03;;;2.60;77.10;;;;;;4970056;28;20187;-88
2021/03/20 01:17:44;;;;;;;7.27;6.57;;;2.60;77.00;;;;;;4953810;28;20202;-88
2021/03/20 01:20:11;;;;;;;7.70;6.13;;;2.50;77.30;;;;;;4953809;28;20210;-88
2021/03/20 01:22:37;;;;;;;7.83;6.40;;;2.50;77.60;;;;;;4938576;28;20191;-87
2021/03/20 01:25:05;;;;;;;6.10;5.50;;;2.40;77.50;;;;;;4954737;28;20222;-88
2021/03/20 01:27:33;;;;;;;6.80;6.10;;;2.40;77.80;;;;;;4966596;29;20191;-88
2021/03/20 01:30:00;;;;;;;8.07;5.97;;;2.40;77.80;;;;;;4981257;28;20229;-87
2021/03/20 01:32:26;;;;;;;6.50;5.40;;;2.40;78.10;;;;;;4967488;29;20184;-87
2021/03/20 01:34:51;;;;;;;6.73;6.13;;;2.50;77.80;;;;;;4967309;28;20188;-87
2021/03/20 01:37:17;;;;;;;7.47;6.77;;;2.50;78.10;;;;;;4966225;29;20287;-88
2021/03/20 01:39:44;;;;;;;7.10;6.40;;;2.60;77.50;;;;;;4982208;28;20188;-88
2021/03/20 01:42:10;;;;;;;7.93;7.13;;;2.40;76.20;;;;;;4966534;29;20187;-89
2021/03/20 01:44:36;;;;;;;7.17;6.57;;;2.30;77.20;;;;;;4982398;28;20676;-88
2021/03/20 01:47:07;;;;;;;7.17;6.20;;;2.30;78.40;;;;;;4981688;28;20254;-88
2021/03/20 01:49:37;;;;;;;7.57;6.80;;;2.40;78.30;;;;;;4966450;29;20247;-88
2021/03/20 01:52:19;;;;;;;7.20;6.27;;;2.40;78.30;;;;;;4969818;28;20227;-88
2021/03/20 01:54:51;;;;;;;6.27;5.67;;;2.40;78.30;;;;;;4969315;28;20203;-89
2021/03/20 01:57:22;;;;;;;7.40;6.57;;;2.50;78.30;;;;;;4986741;28;20191;-88
2021/03/20 01:59:52;;;;;;;7.63;6.83;;;2.30;76.20;;;;;;4985939;28;20255;-88
2021/03/20 02:02:18;;;;;;;7.53;6.70;;;2.00;77.70;;;;;;4987165;28;20186;-89
2021/03/20 02:04:50;;;;;;;8.70;7.50;;;1.80;79.50;;;;;;4969403;28;20218;-88
2021/03/20 02:07:17;;;;;;;8.67;7.87;;;1.70;80.10;;;;;;4987300;28;20249;-88
2021/03/20 02:09:43;;;;;;;8.37;7.50;;;1.40;81.10;;;;;;4954681;28;20202;-88
2021/03/20 02:12:23;;;;;;;7.87;7.17;;;1.10;82.60;;;;;;4953731;28;20179;-88
2021/03/20 02:15:01;;;;;;;8.33;7.53;;;1.20;83.90;;;;;;4953079;28;20560;-88
2021/03/20 02:17:41;;;;;;;9.20;7.57;;;1.40;84.60;;;;;;4966749;28;20542;-89
2021/03/20 02:20:28;;;;;;;8.50;6.70;;;1.60;84.10;;;;;;4949830;28;20242;-88
2021/03/20 02:23:09;;;;;;;7.93;7.13;;;1.80;82.90;;;;;;4966449;29;20188;-88
2021/03/20 02:26:12;;;;;;;7.80;7.00;;;1.90;81.90;;;;;;4966839;29;20207;-89
2021/03/20 02:28:56;;;;;;;7.90;7.07;;;2.00;81.00;;;;;;4966979;29;20346;-88
2021/03/20 02:31:53;;;;;;;7.53;6.77;;;2.10;81.20;;;;;;4967571;28;20207;-88
2021/03/20 02:34:29;;;;;;;8.13;7.20;;;2.10;81.60;;;;;;4965677;29;20679;-89
2021/03/20 02:37:33;;;;;;;7.60;6.87;;;2.10;80.90;;;;;;4966245;29;20226;-89
2021/03/20 02:40:17;;;;;;;7.77;6.40;;;2.20;81.40;;;;;;4966463;29;20193;-89
2021/03/20 02:42:58;;;;;;;7.63;6.77;;;2.30;81.80;;;;;;4967906;29;20286;-89
2021/03/20 02:45:38;;;;;;;7.53;6.73;;;2.30;79.30;;;;;;4949924;29;20274;-89
2021/03/20 02:48:25;;;;;;;7.43;6.57;;;2.40;79.00;;;;;;4953893;28;20178;-88
2021/03/20 02:51:19;;;;;;;8.17;7.37;;;2.40;79.60;;;;;;4968818;28;20285;-89
2021/03/20 02:53:56;;;;;;;7.27;6.53;;;2.50;79.90;;;;;;4979916;28;20191;-87
2021/03/20 02:56:28;;;;;;;7.57;6.87;;;2.50;79.20;;;;;;4968525;28;20178;-89
2021/03/20 02:59:03;;;;;;;9.47;6.57;;;2.40;78.40;;;;;;4968746;28;20639;-88
2021/03/20 03:01:32;;;;;;;7.87;7.07;;;2.30;79.70;;;;;;4968196;28;20213;-88
2021/03/20 03:03:59;;;;;;;7.77;7.03;;;2.30;80.40;;;;;;4987540;28;20203;-88
2021/03/20 03:06:41;;;;;;;10.03;7.40;;;2.30;80.40;;;;;;4966735;29;20219;-88
2021/03/20 03:09:33;;;;;;;8.43;7.23;;;2.40;79.00;;;;;;4949173;29;20179;-89
2021/03/20 03:12:05;;;;;;;7.97;7.10;;;2.40;78.80;;;;;;4963407;28;20215;-89
2021/03/20 03:15:20;;;;;;;9.27;7.30;;;2.40;79.30;;;;;;4949946;29;20179;-89
2021/03/20 03:17:57;;;;;;;8.73;7.77;;;2.60;78.90;;;;;;4965029;29;20199;-89
2021/03/20 03:20:50;;;;;;;8.33;7.53;;;2.50;78.70;;;;;;4966319;29;20198;-89
2021/03/20 03:23:45;;;;;;;8.73;7.70;;;2.50;79.10;;;;;;4964301;29;20195;-89
2021/03/20 03:26:51;;;;;;;9.23;7.97;;;2.40;77.70;;;;;;4906215;29;20225;-88
2021/03/20 03:29:24;;;;;;;8.23;7.43;;;2.20;78.90;;;;;;4903018;29;20192;-89
2021/03/20 03:32:20;;;;;;;8.27;7.43;;;2.30;79.00;;;;;;4949195;29;20211;-89
2021/03/20 03:35:14;;;;;;;7.77;6.97;;;2.20;79.80;;;;;;4968763;28;20627;-88
2021/03/20 03:38:15;;;;;;;8.60;6.83;;;2.30;79.70;;;;;;4953839;29;20238;-88
2021/03/20 03:40:49;;;;;;;8.37;7.47;;;2.40;79.40;;;;;;4969427;28;20207;-88
2021/03/20 03:43:26;;;;;;;8.17;7.40;;;2.40;79.30;;;;;;4969046;29;20191;-88
2021/03/20 03:46:05;;;;;;;7.63;6.93;;;2.30;79.90;;;;;;4969709;29;20217;-88
2021/03/20 03:48:42;;;;;;;8.20;7.20;;;2.30;80.40;;;;;;4954314;29;20196;-88
2021/03/20 03:51:19;;;;;;;9.70;7.70;;;2.30;80.60;;;;;;4968816;29;20211;-88
2021/03/20 03:54:05;;;;;;;8.10;7.30;;;2.30;81.00;;;;;;4955575;28;20179;-89
2021/03/20 03:57:05;;;;;;;8.67;7.53;;;2.30;80.50;;;;;;4970897;28;20178;-89
2021/03/20 04:00:34;;;;;;;9.63;7.87;;;2.40;80.00;;;;;;4971641;28;20187;-90
2021/03/20 04:03:24;;;;;;;7.73;6.40;;;2.40;79.90;;;;;;4948234;29;20188;-89
2021/03/20 04:06:08;;;;;;;7.53;6.80;;;2.30;80.30;;;;;;4947603;29;20212;-88
2021/03/20 04:12:38;;;;;;;7.30;6.60;;;2.40;81.50;;;;;;4974906;28;20271;-89
2021/03/20 04:15:26;;;;;;;8.60;6.50;;;2.40;80.50;;;;;;4971081;28;20195;-89
2021/03/20 04:18:25;;;;;;;7.27;6.57;;;2.50;80.80;;;;;;4988229;28;20204;-89
2021/03/20 04:21:10;;;;;;;8.03;7.20;;;2.50;80.10;;;;;;4988322;28;20227;-89
2021/03/20 04:23:47;;;;;;;9.63;7.40;;;2.40;79.90;;;;;;4971573;28;20202;-89
2021/03/20 04:26:42;;;;;;;9.03;7.00;;;2.40;80.00;;;;;;4970239;28;20202;-89
2021/03/20 04:29:30;;;;;;;7.63;6.83;;;2.20;80.20;;;;;;4988714;28;20179;-87
2021/03/20 04:32:11;;;;;;;7.83;6.47;;;2.30;80.70;;;;;;4987973;28;20205;-89
2021/03/20 04:34:54;;;;;;;8.70;7.80;;;2.40;81.20;;;;;;4988598;28;20535;-89
2021/03/20 04:37:34;;;;;;;8.07;7.27;;;2.40;80.40;;;;;;4987972;28;20187;-89
2021/03/20 04:40:26;;;;;;;7.60;6.57;;;2.50;80.90;;;;;;4971465;28;20183;-89
2021/03/20 04:43:16;;;;;;;7.30;6.60;;;2.60;80.40;;;;;;4987559;28;20203;-88
2021/03/20 04:46:22;;;;;;;7.33;6.47;;;2.60;80.20;;;;;;4970867;28;20215;-88
2021/03/20 04:49:33;;;;;;;8.27;6.97;;;2.50;79.80;;;;;;4971224;28;20252;-88
2021/03/20 04:52:09;;;;;;;8.30;6.73;;;2.50;79.10;;;;;;4981743;28;20560;-88
2021/03/20 04:54:39;;;;;;;8.63;6.97;;;2.60;79.50;;;;;;4970529;28;20214;-88
2021/03/20 04:57:32;;;;;;;7.47;6.77;;;2.60;79.40;;;;;;4970608;28;20191;-89
2021/03/20 05:00:25;;;;;;;8.07;7.20;;;2.60;79.10;;;;;;4970462;28;20187;-89
2021/03/20 05:03:24;;;;;;;6.70;5.83;;;2.60;78.90;;;;;;4988142;28;20167;-89
2021/03/20 05:06:22;;;;;;;8.50;7.13;;;2.50;79.70;;;;;;4970500;28;20262;-88
2021/03/20 05:08:54;;;;;;;8.43;7.13;;;2.40;79.20;;;;;;4985469;28;20250;-89
2021/03/20 05:11:43;;;;;;;7.90;7.10;;;2.30;80.20;;;;;;4970105;28;20217;-88
2021/03/20 05:14:37;;;;;;;8.13;6.90;;;2.30;80.50;;;;;;4970532;28;20183;-88
2021/03/20 05:17:22;;;;;;;8.47;7.57;;;2.30;80.90;;;;;;4969088;28;20195;-90
2021/03/20 05:19:51;;;;;;;7.33;6.63;;;2.40;80.20;;;;;;4970514;28;20698;-89
2021/03/20 05:22:29;;;;;;;9.43;7.03;;;2.40;79.90;;;;;;4985801;28;20218;-89
2021/03/20 05:24:57;;;;;;;8.17;7.20;;;2.50;79.70;;;;;;4987193;28;20211;-90
2021/03/20 05:27:30;;;;;;;7.37;6.57;;;2.50;79.30;;;;;;4987027;28;20179;-88
2021/03/20 05:30:03;;;;;;;7.40;6.70;;;2.50;79.60;;;;;;4968780;29;20179;-89
2021/03/20 05:32:35;;;;;;;7.60;6.90;;;2.50;79.60;;;;;;4986777;28;20202;-88
2021/03/20 05:35:12;;;;;;;7.97;7.17;;;2.50;79.60;;;;;;4986819;28;20173;-88
2021/03/20 05:37:44;;;;;;;8.37;7.57;;;2.40;78.80;;;;;;4985205;28;20213;-89
2021/03/20 05:40:32;;;;;;;9.43;7.67;;;2.10;79.60;;;;;;4970366;28;20209;-87
2021/03/20 05:43:43;;;;;;;7.63;6.83;;;2.10;80.30;;;;;;4969495;28;20178;-88
2021/03/20 05:47:02;;;;;;;7.60;6.90;;;2.00;81.60;;;;;;4974414;28;20265;-89
2021/03/20 05:50:08;;;;;;;7.73;6.93;;;2.20;80.60;;;;;;4894268;28;20249;-88
2021/03/20 05:53:05;;;;;;;7.80;6.67;;;2.20;80.10;;;;;;4969354;28;20179;-87
2021/03/20 05:55:39;;;;;;;7.03;6.23;;;2.40;79.70;;;;;;4968711;28;20195;-90
2021/03/20 05:58:15;;;;;;;8.07;7.27;;;2.30;79.50;;;;;;4986169;28;20536;-88
2021/03/20 06:01:05;;;;;;;8.17;7.20;;;2.20;79.00;;;;;;4968150;28;20261;-88
2021/03/20 06:03:53;;;;;;;11.43;7.70;;;2.20;78.30;;;;;;4980510;28;20183;-87
2021/03/20 06:06:21;;;;;;;10.40;7.90;;;2.10;79.20;;;;;;4968861;28;20199;-88
2021/03/20 06:09:02;;;;;;;7.50;6.70;;;2.10;79.60;;;;;;5003794;28;20178;-88
2021/03/20 06:11:40;;;;;;;8.47;7.67;;;2.00;80.30;;;;;;5004943;28;20198;-88
2021/03/20 06:14:33;;;;;;;8.63;7.80;;;2.00;80.30;;;;;;4987655;28;20182;-89
2021/03/20 06:17:33;;;;;;;11.20;7.93;;;2.00;80.10;;;;;;4991056;28;20635;-89
2021/03/20 06:20:22;;;;;;;8.77;7.97;;;2.10;80.30;;;;;;4986599;28;20611;-88
2021/03/20 06:23:19;;;;;;;9.23;8.27;;;2.00;79.80;;;;;;4991951;28;20187;-88
2021/03/20 06:25:52;;;;;;;8.87;7.97;;;1.90;80.20;;;;;;4937430;28;20290;-88
2021/03/20 06:28:25;;;;;;;8.43;7.53;;;1.90;81.50;;;;;;4969373;28;20210;-87
2021/03/20 06:30:57;;;;;;;12.23;8.43;;;1.90;81.10;;;;;;4967462;28;20218;-88
2021/03/20 06:33:28;;;;;;;9.10;8.10;;;2.00;81.10;;;;;;4960442;28;20195;-88
2021/03/20 06:36:11;;;;;;;8.60;7.77;;;2.10;81.40;;;;;;4936201;28;20199;-88
2021/03/20 06:38:43;;;;;;;8.90;8.00;;;2.20;80.60;;;;;;4985662;28;20167;-88
2021/03/20 06:41:15;;;;;;;8.83;7.90;;;2.30;80.40;;;;;;4984967;28;20233;-88
2021/03/20 06:43:48;;;;;;;8.83;7.87;;;2.40;80.10;;;;;;4986322;28;20175;-88
2021/03/20 06:46:17;;;;;;;9.23;8.13;;;2.30;80.20;;;;;;4967359;28;20238;-88
2021/03/20 06:48:45;;;;;;;7.83;7.10;;;2.40;80.10;;;;;;4951697;28;20255;-88
2021/03/20 06:51:11;;;;;;;8.67;7.67;;;2.50;79.60;;;;;;4967131;28;20211;-88
2021/03/20 06:53:42;;;;;;;9.10;8.03;;;2.40;78.70;;;;;;4984465;28;20206;-88
2021/03/20 06:56:11;;;;;;;11.77;10.03;;;2.30;79.10;;;;;;4952518;28;20198;-88
2021/03/20 06:58:39;;;;;;;14.33;12.10;;;2.30;79.80;;;;;;4986225;28;20187;-88
2021/03/20 07:01:43;;;;;;;24.73;19.27;;;2.30;78.80;;;;;;4967459;28;20214;-88
2021/03/20 07:04:39;;;;;;;16.80;15.17;;;2.30;79.30;;;;;;4984758;28;20263;-88
2021/03/20 07:07:34;;;;;;;10.97;10.00;;;2.20;78.00;;;;;;4982531;28;20206;-88
2021/03/20 07:10:03;;;;;;;11.10;6.80;;;2.10;77.90;;;;;;4983501;28;20190;-88
2021/03/20 07:12:29;;;;;;;8.80;7.90;;;2.00;78.80;;;;;;4967984;28;20191;-88
2021/03/20 07:14:59;;;;;;;7.67;6.93;;;2.10;78.10;;;;;;4999951;28;20215;-88
2021/03/20 07:17:37;;;;;;;7.97;7.17;;;2.00;77.50;;;;;;4999697;28;20229;-88
2021/03/20 07:20:17;;;;;;;7.33;5.93;;;2.00;76.80;;;;;;4961537;28;20230;-89
2021/03/20 07:23:07;;;;;;;8.53;6.07;;;2.00;76.60;;;;;;4983222;28;20271;-88
2021/03/20 07:25:47;;;;;;;7.63;6.93;;;2.00;76.30;;;;;;4982744;28;20215;-90
2021/03/20 07:28:16;;;;;;;11.80;9.43;;;2.10;77.00;;;;;;4962394;28;20194;-89
2021/03/20 07:31:00;;;;;;;7.00;6.30;;;2.20;75.50;;;;;;4984758;28;20206;-89
2021/03/20 07:33:47;;;;;;;8.93;5.50;;;2.20;74.90;;;;;;4984318;28;20179;-88
2021/03/20 07:36:29;;;;;;;6.80;5.10;;;2.30;72.20;;;;;;4983392;28;20248;-87
2021/03/20 07:39:07;;;;;;;5.40;4.73;;;2.20;73.30;;;;;;4984545;28;20191;-87
2021/03/20 07:41:56;;;;;;;11.00;9.70;;;2.40;72.30;;;;;;4985186;28;20207;-86
2021/03/20 07:44:24;;;;;;;5.50;4.93;;;2.40;73.10;;;;;;4983778;28;20171;-87
2021/03/20 07:46:50;;;;;;;13.80;11.03;;;2.40;72.20;;;;;;4949936;28;20190;-89
2021/03/20 07:49:33;;;;;;;7.93;7.13;;;2.40;71.10;;;;;;4958220;28;20485;-89
2021/03/20 07:52:26;;;;;;;11.60;9.27;;;2.30;72.50;;;;;;4966867;28;20277;-89
2021/03/20 07:55:14;;;;;;;5.00;4.60;;;2.50;71.80;;;;;;4958624;28;20280;-88
2021/03/20 07:57:58;;;;;;;5.33;4.83;;;2.60;70.50;;;;;;4983432;28;20215;-87
2021/03/20 08:00:34;;;;;;;4.57;4.17;;;2.60;70.50;;;;;;4983394;28;20270;-87
2021/03/20 08:03:07;;;;;;;6.70;5.07;;;2.60;69.20;;;;;;4984412;28;20705;-86
2021/03/20 08:05:36;;;;;;;4.60;3.90;;;2.50;69.10;;;;;;4984131;28;20230;-88
2021/03/20 08:08:28;;;;;;;5.77;4.10;;;2.60;68.50;;;;;;4983291;28;20670;-86
2021/03/20 08:10:57;;;;;;;5.23;4.70;;;2.60;69.10;;;;;;4982041;28;20329;-87
2021/03/20 08:13:47;;;;;;;5.50;5.00;;;2.70;68.90;;;;;;4983525;28;20184;-86
2021/03/20 08:16:18;;;;;;;4.93;4.00;;;2.90;68.80;;;;;;4964135;29;20911;-87
2021/03/20 08:18:48;;;;;;;5.13;4.60;;;2.90;68.10;;;;;;4958891;28;20199;-87
2021/03/20 08:21:26;;;;;;;5.33;4.40;;;2.90;68.20;;;;;;4987533;28;20321;-88
2021/03/20 08:24:10;;;;;;;5.17;4.67;;;3.00;67.80;;;;;;4986658;28;20709;-87
2021/03/20 08:26:46;;;;;;;4.53;4.13;;;3.00;67.30;;;;;;4987055;28;20199;-87
2021/03/20 08:29:49;;;;;;;4.63;3.60;;;3.00;66.10;;;;;;4969872;28;20713;-88
2021/03/20 08:32:30;;;;;;;4.50;4.03;;;3.10;65.80;;;;;;4990620;28;20190;-87
2021/03/20 08:35:20;;;;;;;6.23;4.00;;;3.10;65.50;;;;;;4988991;28;20189;-87
2021/03/20 08:38:07;;;;;;;4.03;3.63;;;3.10;63.80;;;;;;4987929;28;20168;-89
2021/03/20 08:41:00;;;;;;;4.03;3.57;;;3.30;64.30;;;;;;4974826;28;20202;-89
2021/03/20 08:43:47;;;;;;;4.57;3.50;;;3.40;62.70;;;;;;4986444;28;20183;-88
2021/03/20 08:46:13;;;;;;;6.17;3.63;;;3.50;62.10;;;;;;4969831;28;20288;-88
2021/03/20 08:48:50;;;;;;;3.83;3.43;;;3.60;60.80;;;;;;4988263;28;20187;-87
2021/03/20 08:51:42;;;;;;;5.80;3.90;;;3.70;61.90;;;;;;4986441;28;20202;-90
2021/03/20 08:54:38;;;;;;;3.50;3.10;;;3.90;59.10;;;;;;4986527;28;20230;-89
2021/03/20 08:57:27;;;;;;;4.07;3.37;;;4.00;60.40;;;;;;4986807;28;20198;-88
2021/03/20 08:59:56;;;;;;;4.00;3.60;;;4.00;58.60;;;;;;4985026;28;20168;-90
2021/03/20 09:02:24;;;;;;;3.37;3.07;;;3.90;54.70;;;;;;4986849;28;20171;-88
2021/03/20 09:05:11;;;;;;;6.33;3.57;;;3.90;55.30;;;;;;4986561;28;20245;-90
2021/03/20 09:07:59;;;;;;;4.53;4.00;;;4.00;55.30;;;;;;4988809;28;20156;-88
2021/03/20 09:11:05;;;;;;;4.17;3.67;;;4.10;55.00;;;;;;4987048;28;20207;-87
2021/03/20 09:14:07;;;;;;;5.63;4.20;;;3.70;55.80;;;;;;4969694;28;20159;-90
2021/03/20 09:16:40;;;;;;;10.30;6.97;;;3.70;56.20;;;;;;4985720;28;20186;-88
2021/03/20 09:19:13;;;;;;;4.03;3.60;;;3.70;55.10;;;;;;4985027;28;20225;-88
2021/03/20 09:21:40;;;;;;;3.60;2.90;;;4.00;56.20;;;;;;4969675;28;20262;-87
2021/03/20 09:24:15;;;;;;;6.20;3.50;;;3.90;55.30;;;;;;4969483;28;20644;-88
2021/03/20 09:26:53;;;;;;;4.30;2.90;;;4.00;55.50;;;;;;4984607;28;20186;-87
2021/03/20 09:29:28;;;;;;;2.93;2.63;;;4.00;53.70;;;;;;4985685;28;20745;-87
2021/03/20 09:31:54;;;;;;;3.47;2.80;;;4.00;53.40;;;;;;4984942;28;20233;-89
2021/03/20 09:34:28;;;;;;;3.13;2.73;;;4.00;50.80;;;;;;4986257;28;20715;-88
2021/03/20 09:36:54;;;;;;;3.77;2.60;;;4.10;53.10;;;;;;4968411;28;20179;-89
2021/03/20 09:39:40;;;;;;;3.87;2.67;;;4.20;50.30;;;;;;4986561;28;20218;-88
2021/03/20 09:42:24;;;;;;;4.03;2.80;;;4.00;50.90;;;;;;4985557;28;20225;-89
2021/03/20 09:45:24;;;;;;;3.23;2.93;;;4.20;50.40;;;;;;4973183;28;20267;-88
2021/03/20 09:47:56;;;;;;;2.63;2.40;;;4.70;48.80;;;;;;4967872;29;20190;-88
2021/03/20 09:50:21;;;;;;;2.80;2.50;;;5.00;46.90;;;;;;4953859;28;20198;-87
2021/03/20 09:52:49;;;;;;;5.37;2.70;;;5.10;47.10;;;;;;4968198;28;20552;-87
2021/03/20 09:55:30;;;;;;;4.50;3.23;;;5.30;46.30;;;;;;4986890;28;20652;-88
2021/03/20 09:58:04;;;;;;;3.77;2.93;;;5.30;46.50;;;;;;4984182;28;20669;-88
2021/03/20 10:00:52;;;;;;;3.33;3.03;;;5.50;47.50;;;;;;4986236;28;20218;-89
2021/03/20 10:03:48;;;;;;;3.80;2.43;;;5.90;46.40;;;;;;4985574;28;20209;-88
2021/03/20 10:06:25;;;;;;;3.07;2.77;;;5.80;44.40;;;;;;4968723;28;20284;-88
2021/03/20 10:09:08;;;;;;;3.43;2.60;;;5.70;43.40;;;;;;4970064;28;20175;-88
2021/03/20 10:11:50;;;;;;;11.17;3.00;;;5.70;42.20;;;;;;4986526;28;20233;-87
2021/03/20 10:14:28;;;;;;;6.53;2.57;;;6.00;43.40;;;;;;4972883;28;20513;-87
2021/03/20 10:17:06;;;;;;;3.73;2.70;;;6.50;42.70;;;;;;4989524;28;20178;-88
2021/03/20 10:19:41;;;;;;;3.70;3.40;;;6.60;40.30;;;;;;4984729;28;20182;-88
2021/03/20 10:22:17;;;;;;;3.43;2.60;;;6.70;39.70;;;;;;4961307;28;20211;-88
2021/03/20 10:24:49;;;;;;;3.73;3.27;;;6.90;41.00;;;;;;4958857;29;20238;-90
2021/03/20 10:27:27;;;;;;;2.60;2.40;;;7.00;38.50;;;;;;4965305;29;20164;-88
2021/03/20 10:29:53;;;;;;;7.87;2.93;;;6.90;37.80;;;;;;4979815;28;20178;-87
2021/03/20 10:32:23;;;;;;;3.33;2.50;;;7.00;38.10;;;;;;4968865;28;20221;-88
2021/03/20 10:34:52;;;;;;;2.60;2.40;;;7.40;37.20;;;;;;4968206;28;20254;-88
2021/03/20 10:37:21;;;;;;;3.20;2.90;;;7.50;37.50;;;;;;4986351;28;20605;-86
2021/03/20 10:40:02;;;;;;;9.33;8.20;;;7.60;38.80;;;;;;4986080;28;20199;-89
2021/03/20 10:42:33;;;;;;;2.93;2.70;;;7.90;39.90;;;;;;4966687;28;20174;-90
2021/03/20 10:45:01;;;;;;;3.20;1.93;;;8.10;36.20;;;;;;4968761;28;20214;-88
2021/03/20 10:47:37;;;;;;;3.40;2.00;;;7.80;33.20;;;;;;4983745;28;20213;-88
2021/03/20 10:50:24;;;;;;;2.90;2.70;;;7.40;33.90;;;;;;4979213;28;20179;-87
2021/03/20 10:52:52;;;;;;;4.00;3.00;;;7.60;34.70;;;;;;4976568;28;20180;-87
2021/03/20 10:55:48;;;;;;;3.20;2.33;;;7.70;35.30;;;;;;4979781;28;20277;-87
2021/03/20 10:58:26;;;;;;;5.37;2.70;;;7.60;34.20;;;;;;4980839;28;20202;-88
2021/03/20 11:00:52;;;;;;;2.23;2.03;;;7.90;33.90;;;;;;4962659;28;20233;-87
2021/03/20 11:03:40;;;;;;;2.43;2.10;;;8.20;34.00;;;;;;4984057;28;20282;-87
2021/03/20 11:06:13;;;;;;;3.63;2.50;;;8.30;33.80;;;;;;4983365;28;20195;-87
2021/03/20 11:08:40;;;;;;;3.60;2.70;;;8.00;34.30;;;;;;4966233;28;20632;-87
2021/03/20 11:11:22;;;;;;;4.13;2.60;;;8.20;35.20;;;;;;4983277;28;20207;-88
2021/03/20 11:13:50;;;;;;;3.77;2.63;;;8.40;34.60;;;;;;4982022;28;20647;-88
2021/03/20 11:16:18;;;;;;;3.87;3.00;;;8.50;35.00;;;;;;4985484;28;20270;-88
2021/03/20 11:18:55;;;;;;;3.53;2.93;;;8.30;34.40;;;;;;4974975;28;20198;-88
2021/03/20 11:21:34;;;;;;;4.67;3.13;;;8.40;35.20;;;;;;4976757;28;20202;-88
2021/03/20 11:24:03;;;;;;;2.43;2.23;;;8.80;33.80;;;;;;4962874;28;20218;-88
2021/03/20 11:26:51;;;;;;;2.67;2.10;;;8.90;32.30;;;;;;4979614;28;20214;-88
2021/03/20 11:29:21;;;;;;;2.63;2.30;;;9.40;30.80;;;;;;4951036;28;20195;-88
2021/03/20 11:31:51;;;;;;;2.50;2.10;;;9.60;29.50;;;;;;4980269;28;20221;-90
2021/03/20 11:34:24;;;;;;;2.83;2.60;;;9.60;29.90;;;;;;4965203;28;20202;-88
2021/03/20 11:36:51;;;;;;;7.17;6.20;;;9.40;32.90;;;;;;4984793;28;20179;-89
2021/03/20 11:39:18;;;;;;;3.37;2.40;;;9.60;31.80;;;;;;4963628;28;20359;-88
2021/03/20 11:41:45;;;;;;;2.40;2.20;;;9.70;32.00;;;;;;4980595;28;20197;-88
2021/03/20 11:44:26;;;;;;;6.80;6.20;;;9.70;30.20;;;;;;4981195;28;20183;-89
2021/03/20 11:46:55;;;;;;;4.80;2.97;;;9.70;32.90;;;;;;4963089;28;20202;-88
2021/03/20 11:49:25;;;;;;;2.63;2.40;;;10.30;33.80;;;;;;4980720;28;20194;-88
2021/03/20 11:51:53;;;;;;;3.40;2.20;;;9.70;30.60;;;;;;4980573;28;20567;-89
2021/03/20 11:54:37;;;;;;;2.57;2.37;;;9.60;28.70;;;;;;4983806;28;20206;-88
2021/03/20 11:57:21;;;;;;;3.13;2.20;;;9.80;28.70;;;;;;4970203;28;20218;-91
2021/03/20 11:59:48;;;;;;;1.97;1.83;;;10.10;27.90;;;;;;4981413;28;20261;-89
2021/03/20 12:02:23;;;;;;;2.90;1.73;;;10.40;27.20;;;;;;4985511;28;20189;-88
2021/03/20 12:05:06;;;;;;;2.30;2.10;;;10.70;26.80;;;;;;4984656;28;20304;-88
2021/03/20 12:07:31;;;;;;;2.43;2.23;;;10.90;27.60;;;;;;4985219;28;20175;-89
2021/03/20 12:10:12;;;;;;;2.70;2.50;;;9.80;28.70;;;;;;4989722;28;20226;-88
2021/03/20 12:12:47;;;;;;;3.93;2.80;;;9.80;29.80;;;;;;4986260;28;20187;-89
2021/03/20 12:15:32;;;;;;;2.40;2.20;;;10.10;30.60;;;;;;4969609;28;20768;-87
2021/03/20 12:18:12;;;;;;;3.27;1.80;;;9.80;30.00;;;;;;4986029;28;20237;-88
2021/03/20 12:20:43;;;;;;;2.77;2.37;;;9.70;30.40;;;;;;4977427;28;20233;-89
2021/03/20 12:23:23;;;;;;;3.43;2.30;;;9.70;29.70;;;;;;4971823;28;20226;-87
2021/03/20 12:25:55;;;;;;;3.40;2.50;;;9.80;30.70;;;;;;4985263;28;20226;-87
2021/03/20 12:28:34;;;;;;;4.67;4.17;;;10.40;30.20;;;;;;4988351;28;20175;-88
2021/03/20 12:31:27;;;;;;;3.00;2.60;;;10.10;29.80;;;;;;4985412;28;20536;-87
2021/03/20 12:34:02;;;;;;;6.23;5.63;;;10.20;29.90;;;;;;4971703;28;20203;-88
2021/03/20 12:37:10;;;;;;;3.50;3.20;;;10.40;29.30;;;;;;4971322;28;20257;-89
2021/03/20 12:39:35;;;;;;;3.03;2.57;;;10.00;29.30;;;;;;4980110;28;20256;-88
2021/03/20 12:42:02;;;;;;;2.93;2.63;;;10.60;29.30;;;;;;4988215;28;20206;-89
2021/03/20 12:44:31;;;;;;;4.83;2.57;;;10.80;28.80;;;;;;4969839;28;20245;-88
2021/03/20 12:47:02;;;;;;;4.73;2.83;;;10.20;29.30;;;;;;4987935;28;20179;-89
2021/03/20 12:49:34;;;;;;;3.40;2.63;;;10.50;28.30;;;;;;4989543;28;20186;-90
2021/03/20 12:52:08;;;;;;;4.33;3.93;;;10.60;28.00;;;;;;4972937;28;20579;-90
2021/03/20 12:54:39;;;;;;;3.73;3.00;;;11.10;28.50;;;;;;4972302;28;20187;-89
2021/03/20 12:57:05;;;;;;;3.33;2.67;;;11.00;28.70;;;;;;4976035;28;20175;-90
2021/03/20 12:59:31;;;;;;;14.07;3.60;;;11.30;28.30;;;;;;4972085;28;20198;-89
2021/03/20 13:01:58;;;;;;;3.27;2.33;;;10.90;28.10;;;;;;4954103;28;20215;-88
2021/03/20 13:04:24;;;;;;;2.73;2.40;;;11.00;28.10;;;;;;4989255;28;20197;-89
2021/03/20 13:06:51;;;;;;;2.63;2.43;;;10.90;27.50;;;;;;4972164;28;20269;-89
2021/03/20 13:09:18;;;;;;;3.23;2.40;;;11.10;27.40;;;;;;4972272;28;20187;-91
2021/03/20 13:11:45;;;;;;;3.23;2.70;;;10.90;28.50;;;;;;4989355;28;20211;-89
2021/03/20 13:14:11;;;;;;;5.23;2.73;;;10.80;29.00;;;;;;4988663;28;20219;-91
2021/03/20 13:16:37;;;;;;;4.27;3.20;;;11.10;29.10;;;;;;4989691;28;20183;-88
2021/03/20 13:19:04;;;;;;;6.03;2.90;;;11.30;28.20;;;;;;4972427;28;20202;-88
2021/03/20 13:21:31;;;;;;;5.60;3.00;;;11.60;28.40;;;;;;4989842;28;20233;-89
2021/03/20 13:23:57;;;;;;;4.27;2.67;;;12.20;28.20;;;;;;4989924;28;20171;-89
2021/03/20 13:26:24;;;;;;;5.80;3.70;;;12.50;27.80;;;;;;4988468;28;20200;-92
2021/03/20 13:28:50;;;;;;;4.13;3.13;;;12.70;26.90;;;;;;4987219;28;20184;-89
2021/03/20 13:31:17;;;;;;;3.13;2.83;;;12.50;27.60;;;;;;4987090;28;20272;-90
2021/03/20 13:33:43;;;;;;;6.83;6.10;;;12.20;27.20;;;;;;4988605;28;20255;-88
2021/03/20 13:36:11;;;;;;;4.17;3.60;;;12.50;27.30;;;;;;4977680;28;20528;-90
2021/03/20 13:38:38;;;;;;;6.83;5.50;;;12.80;27.20;;;;;;4992952;28;20202;-89
2021/03/20 13:41:05;;;;;;;4.27;3.47;;;12.00;27.40;;;;;;4987652;28;20219;-90
2021/03/20 13:43:31;;;;;;;5.50;3.97;;;12.40;28.10;;;;;;4977426;28;20185;-89
2021/03/20 13:45:57;;;;;;;11.80;6.70;;;12.30;27.40;;;;;;4988187;28;20207;-90
2021/03/20 13:48:23;;;;;;;8.10;5.00;;;12.50;28.20;;;;;;4992823;28;20266;-89
2021/03/20 13:50:49;;;;;;;3.93;3.63;;;12.20;28.10;;;;;;4993180;28;20236;-89
2021/03/20 13:53:18;;;;;;;3.87;3.40;;;12.50;27.20;;;;;;4975635;28;20213;-89